createdAt,value
2023-11-24T00:01:10.235Z,5.30
2023-11-24T00:06:14.245Z,5.28
2023-11-24T00:11:16.502Z,5.26
2023-11-24T00:16:18.720Z,5.23
2023-11-24T00:21:21.255Z,5.23
2023-11-24T00:26:23.247Z,5.29
2023-11-24T00:31:32.556Z,5.28
2023-11-24T00:36:35.453Z,5.24
2023-11-24T00:41:37.458Z,5.28
2023-11-24T00:46:39.479Z,5.28
2023-11-24T00:51:41.504Z,5.30
2023-11-24T00:56:43.523Z,5.31
2023-11-24T01:01:45.592Z,5.28
2023-11-24T01:06:47.569Z,5.23
2023-11-24T01:11:50.144Z,5.19
2023-11-24T01:16:52.211Z,4.89
2023-11-24T01:24:49.026Z,2.57
2023-11-24T01:29:54.403Z,2.22
2023-11-24T01:40:01.946Z,2.61
2023-11-24T01:45:10.796Z,2.90
2023-11-24T01:50:13.042Z,3.12
2023-11-24T01:55:17.395Z,3.24
2023-11-24T02:00:20.169Z,3.35
2023-11-24T02:05:23.047Z,3.44
2023-11-24T02:10:25.229Z,3.51
2023-11-24T02:15:27.443Z,3.54
2023-11-24T02:20:34.510Z,3.61
2023-11-24T02:25:36.600Z,3.64
2023-11-24T02:30:38.836Z,3.69
2023-11-24T02:35:43.723Z,3.73
2023-11-24T02:40:45.811Z,3.77
2023-11-24T02:45:48.039Z,3.80
2023-11-24T02:50:50.323Z,3.84
2023-11-24T02:55:52.568Z,3.90
2023-11-24T03:00:54.879Z,3.95
2023-11-24T03:05:57.244Z,3.96
2023-11-24T03:10:59.849Z,3.98
2023-11-24T03:16:07.536Z,4.00
2023-11-24T03:21:09.494Z,4.02
2023-11-24T03:26:12.127Z,4.02
2023-11-24T03:31:14.215Z,4.02
2023-11-24T03:36:17.636Z,4.01
2023-11-24T03:41:19.599Z,4.03
2023-11-24T03:46:22.254Z,4.06
2023-11-24T03:51:24.333Z,4.08
2023-11-24T03:56:26.881Z,4.10
2023-11-24T04:01:29.357Z,4.10
2023-11-24T04:06:31.887Z,4.11
2023-11-24T04:11:34.261Z,4.12
2023-11-24T04:16:37.869Z,4.13
2023-11-24T04:21:42.227Z,4.13
2023-11-24T04:26:44.763Z,4.15
2023-11-24T04:31:46.871Z,4.17
2023-11-24T04:36:49.306Z,4.19
2023-11-24T04:41:51.342Z,4.18
2023-11-24T04:46:53.719Z,4.17
2023-11-24T04:57:19.709Z,3.33
2023-11-24T05:07:19.270Z,2.47
2023-11-24T05:12:21.277Z,2.34
2023-11-24T05:17:23.274Z,2.24
2023-11-24T05:22:25.413Z,2.17
2023-11-24T05:27:27.504Z,2.10
2023-11-24T05:32:29.486Z,2.03
2023-11-24T05:37:35.585Z,1.97
2023-11-24T05:42:42.123Z,1.96
2023-11-24T05:47:44.149Z,1.98
2023-11-24T05:52:46.174Z,1.90
2023-11-24T05:57:51.835Z,1.85
2023-11-24T06:07:59.456Z,1.81
2023-11-24T06:28:16.529Z,1.77
2023-11-24T06:38:27.057Z,1.94
2023-11-24T06:43:29.759Z,1.99
2023-11-24T06:53:55.614Z,2.11
2023-11-24T06:58:57.721Z,2.08
2023-11-24T07:04:04.434Z,2.13
2023-11-24T07:09:07.551Z,2.24
2023-11-24T07:19:19.240Z,2.61
2023-11-24T07:24:21.451Z,2.74
2023-11-24T07:50:52.762Z,3.64
2023-11-24T08:39:09.448Z,3.75
2023-11-24T08:44:12.748Z,3.88
2023-11-24T08:49:14.141Z,3.92
2023-11-24T08:54:15.527Z,3.96
2023-11-24T08:59:16.945Z,3.87
2023-11-24T09:04:22.795Z,3.88
2023-11-24T09:09:24.439Z,3.93
2023-11-24T09:14:25.717Z,3.93
2023-11-24T09:19:27.103Z,3.91
2023-11-24T09:24:28.635Z,3.93
2023-11-24T09:29:30.265Z,4.03
2023-11-24T09:34:32.130Z,4.20
2023-11-24T09:39:33.491Z,4.36
2023-11-24T09:44:36.487Z,4.46
2023-11-24T09:49:40.864Z,4.57
2023-11-24T09:54:43.237Z,4.66
2023-11-24T09:59:44.571Z,4.72
2023-11-24T10:04:45.843Z,5.02
2023-11-24T10:09:51.260Z,5.10
2023-11-24T10:14:54.844Z,5.05
2023-11-24T10:19:56.058Z,4.99
2023-11-24T10:24:59.220Z,4.88
2023-11-24T10:30:00.440Z,4.81
2023-11-24T10:35:01.864Z,4.88
2023-11-24T10:40:09.722Z,4.97
2023-11-24T10:45:12.134Z,5.04
2023-11-24T10:50:16.816Z,5.28
2023-11-24T10:55:18.276Z,5.67
2023-11-24T11:00:21.370Z,5.67
2023-11-24T11:05:28.578Z,5.65
2023-11-24T11:10:36.786Z,5.67
2023-11-24T11:15:41.378Z,5.60
2023-11-24T11:20:45.261Z,5.56
2023-11-24T11:25:51.273Z,5.51
2023-11-24T11:31:00.144Z,5.41
2023-11-24T11:36:05.929Z,5.35
2023-11-24T11:41:07.300Z,5.30
2023-11-24T11:46:10.583Z,5.23
2023-11-24T11:51:17.248Z,5.12
2023-11-24T11:56:21.522Z,5.04
2023-11-24T12:01:23.080Z,4.93
2023-11-24T12:06:25.281Z,4.81
2023-11-24T12:11:27.388Z,4.82
2023-11-24T12:16:33.097Z,4.87
2023-11-24T12:21:38.764Z,4.85
2023-11-24T12:26:40.256Z,4.90
2023-11-24T12:31:42.940Z,4.91
2023-11-24T12:36:45.328Z,4.93
2023-11-24T12:41:47.284Z,4.93
2023-11-24T12:46:49.209Z,4.87
2023-11-24T12:51:50.729Z,5.03
2023-11-24T12:56:52.670Z,5.19
2023-11-24T13:01:54.626Z,5.16
2023-11-24T13:06:56.122Z,5.16
2023-11-24T13:12:00.400Z,5.12
2023-11-24T13:17:05.293Z,4.93
2023-11-24T13:22:09.878Z,4.71
2023-11-24T13:27:11.271Z,4.55
2023-11-24T13:32:12.632Z,4.38
2023-11-24T13:37:14.045Z,4.24
2023-11-24T13:42:17.037Z,4.17
2023-11-24T13:47:18.288Z,4.14
2023-11-24T13:52:19.676Z,4.23
2023-11-24T13:57:20.944Z,4.36
2023-11-24T14:02:22.569Z,4.33
2023-11-24T14:07:25.452Z,4.20
2023-11-24T14:12:27.124Z,4.10
2023-11-24T14:17:28.391Z,4.08
2023-11-24T14:22:30.018Z,4.06
2023-11-24T14:27:31.184Z,4.02
2023-11-24T14:32:33.147Z,3.94
2023-11-24T14:37:34.459Z,3.86
2023-11-24T14:42:35.996Z,3.81
2023-11-24T14:47:37.436Z,3.72
2023-11-24T14:52:38.754Z,3.64
2023-11-24T14:57:40.138Z,3.58
2023-11-24T15:07:47.518Z,3.40
2023-11-24T15:12:49.320Z,3.29
2023-11-24T15:22:58.811Z,3.03
2023-11-24T15:28:02.945Z,2.82
2023-11-24T15:33:04.405Z,2.71
2023-11-24T15:38:05.689Z,2.54
2023-11-24T15:43:07.028Z,2.40
2023-11-24T15:48:09.039Z,2.32
2023-11-24T15:53:13.530Z,2.21
2023-11-24T15:58:15.470Z,2.15
2023-11-24T16:03:18.141Z,2.22
2023-11-24T16:08:21.510Z,2.34
2023-11-24T16:13:26.133Z,2.43
2023-11-24T16:18:35.050Z,2.50
2023-11-24T16:23:33.452Z,2.47
2023-11-24T16:28:34.768Z,2.34
2023-11-24T16:33:38.064Z,2.15
2023-11-24T16:38:40.267Z,1.97
2023-11-24T16:43:41.910Z,1.79
2023-11-24T16:48:46.689Z,1.65
2023-11-24T16:53:48.242Z,1.54
2023-11-24T16:58:49.572Z,1.51
2023-11-24T17:03:50.979Z,1.56
2023-11-24T17:08:52.863Z,1.67
2023-11-24T17:13:54.862Z,1.70
2023-11-24T17:18:57.422Z,1.66
2023-11-24T17:23:58.964Z,1.55
2023-11-24T17:29:02.624Z,1.43
2023-11-24T17:34:04.093Z,1.31
2023-11-24T17:39:07.454Z,1.19
2023-11-24T17:44:12.758Z,1.06
2023-11-24T17:49:17.702Z,0.94
2023-11-24T17:54:21.731Z,0.82
2023-11-24T17:59:23.742Z,0.70
2023-11-24T18:04:25.207Z,0.62
2023-11-24T18:09:26.682Z,0.55
2023-11-24T18:14:28.028Z,0.56
2023-11-24T18:19:29.379Z,0.66
2023-11-24T18:24:30.706Z,0.82
2023-11-24T18:29:32.020Z,0.96
2023-11-24T18:39:37.561Z,1.20
2023-11-24T18:44:39.320Z,1.30
2023-11-24T18:49:46.083Z,1.37
2023-11-24T18:54:49.306Z,1.43
2023-11-24T18:59:51.390Z,1.46
2023-11-24T19:04:55.967Z,1.47
2023-11-24T19:15:08.819Z,1.60
2023-11-24T19:20:13.136Z,1.68
2023-11-24T19:25:15.973Z,1.73
2023-11-24T19:30:17.470Z,1.71
2023-11-24T19:35:19.154Z,1.62
2023-11-24T19:40:20.681Z,1.45
2023-11-24T19:45:22.499Z,1.32
2023-11-24T19:50:24.880Z,1.24
2023-11-24T19:55:26.337Z,1.16
2023-11-24T20:00:27.927Z,1.15
2023-11-24T20:05:31.134Z,1.20
2023-11-24T20:10:34.960Z,1.26
2023-11-24T20:15:36.432Z,1.34
2023-11-24T20:20:41.684Z,1.42
2023-11-24T20:25:43.152Z,1.46
2023-11-24T20:30:45.335Z,1.48
2023-11-24T20:35:46.910Z,1.53
2023-11-24T20:40:52.263Z,1.58
2023-11-24T20:45:54.274Z,1.60
2023-11-24T20:50:57.413Z,1.64
2023-11-24T20:56:00.043Z,1.69
2023-11-24T21:01:01.716Z,1.66
2023-11-24T21:06:03.902Z,1.55
2023-11-24T21:11:05.371Z,1.50
2023-11-24T21:16:07.696Z,1.43
2023-11-24T21:21:09.840Z,1.34
2023-11-24T21:26:11.549Z,1.25
2023-11-24T21:31:13.852Z,1.19
2023-11-24T21:36:19.876Z,1.13
2023-11-24T21:41:21.891Z,1.07
2023-11-24T21:46:23.898Z,1.05
2023-11-24T21:51:26.112Z,1.02
2023-11-24T21:56:29.497Z,0.99
2023-11-24T22:01:33.209Z,0.96
2023-11-24T22:06:40.969Z,0.95
2023-11-24T22:11:42.447Z,0.93
2023-11-24T22:16:44.739Z,0.88
2023-11-24T22:21:46.540Z,0.83
2023-11-24T22:26:47.868Z,0.84
2023-11-24T22:31:49.358Z,0.85
2023-11-24T22:36:51.430Z,0.87
2023-11-24T22:41:53.089Z,0.87
2023-11-24T22:46:54.649Z,0.80
2023-11-24T22:51:56.668Z,0.73
2023-11-24T22:56:57.921Z,0.67
2023-11-24T23:02:00.113Z,0.64
2023-11-24T23:07:01.797Z,0.68
2023-11-24T23:12:03.328Z,0.75
2023-11-24T23:17:06.335Z,0.82
2023-11-24T23:22:09.351Z,0.92
2023-11-24T23:27:13.671Z,1.02
2023-11-24T23:32:16.826Z,1.10
2023-11-24T23:37:18.754Z,1.18
2023-11-24T23:42:20.125Z,1.24
2023-11-24T23:47:22.241Z,1.28
2023-11-24T23:52:23.704Z,1.35
2023-11-24T23:57:25.731Z,1.39
